sensor_id;sensor_type;location;lat;lon;timestamp;P1;durP1;ratioP1;P2;durP2;ratioP2
37288;SDS011;23174;49.462;11.000;2023-05-15T00:00:17;3.78;;;3.47;;
37288;SDS011;23174;49.462;11.000;2023-05-15T00:02:18;3.67;;;3.13;;
37288;SDS011;23174;49.462;11.000;2023-05-15T00:04:18;3.75;;;2.88;;
37288;SDS011;23174;49.462;11.000;2023-05-15T00:06:19;2.97;;;2.78;;
37288;SDS011;23174;49.462;11.000;2023-05-15T00:08:19;3.35;;;3.10;;
37288;SDS011;23174;49.462;11.000;2023-05-15T00:10:20;3.90;;;3.05;;
37288;SDS011;23174;49.462;11.000;2023-05-15T00:12:20;4.00;;;3.30;;
37288;SDS011;23174;49.462;11.000;2023-05-15T00:14:21;3.22;;;2.95;;
37288;SDS011;23174;49.462;11.000;2023-05-15T00:16:21;3.53;;;3.28;;
37288;SDS011;23174;49.462;11.000;2023-05-15T00:18:23;3.35;;;2.95;;
37288;SDS011;23174;49.462;11.000;2023-05-15T00:20:23;3.35;;;3.05;;
37288;SDS011;23174;49.462;11.000;2023-05-15T00:22:24;3.03;;;2.83;;
37288;SDS011;23174;49.462;11.000;2023-05-15T00:24:25;2.97;;;2.78;;
37288;SDS011;23174;49.462;11.000;2023-05-15T00:26:25;4.63;;;3.00;;
37288;SDS011;23174;49.462;11.000;2023-05-15T00:28:26;4.30;;;2.80;;
37288;SDS011;23174;49.462;11.000;2023-05-15T00:30:26;3.05;;;2.85;;
37288;SDS011;23174;49.462;11.000;2023-05-15T00:32:27;3.80;;;3.15;;
37288;SDS011;23174;49.462;11.000;2023-05-15T00:34:27;3.35;;;3.05;;
37288;SDS011;23174;49.462;11.000;2023-05-15T00:36:28;3.28;;;3.08;;
37288;SDS011;23174;49.462;11.000;2023-05-15T00:38:29;4.50;;;3.10;;
37288;SDS011;23174;49.462;11.000;2023-05-15T00:40:32;3.63;;;3.00;;
37288;SDS011;23174;49.462;11.000;2023-05-15T00:42:34;3.25;;;3.05;;
37288;SDS011;23174;49.462;11.000;2023-05-15T00:44:35;5.65;;;3.50;;
37288;SDS011;23174;49.462;11.000;2023-05-15T00:46:37;4.15;;;3.38;;
37288;SDS011;23174;49.462;11.000;2023-05-15T00:48:39;4.40;;;2.85;;
37288;SDS011;23174;49.462;11.000;2023-05-15T00:50:41;3.35;;;3.13;;
37288;SDS011;23174;49.462;11.000;2023-05-15T00:52:43;4.00;;;2.85;;
37288;SDS011;23174;49.462;11.000;2023-05-15T00:54:44;3.10;;;2.90;;
37288;SDS011;23174;49.462;11.000;2023-05-15T00:56:45;3.33;;;3.13;;
37288;SDS011;23174;49.462;11.000;2023-05-15T00:58:48;3.45;;;3.17;;
37288;SDS011;23174;49.462;11.000;2023-05-15T01:00:49;3.50;;;3.20;;
37288;SDS011;23174;49.462;11.000;2023-05-15T01:02:49;3.40;;;3.20;;
37288;SDS011;23174;49.462;11.000;2023-05-15T01:04:50;3.28;;;3.08;;
37288;SDS011;23174;49.462;11.000;2023-05-15T01:06:51;7.32;;;3.90;;
37288;SDS011;23174;49.462;11.000;2023-05-15T01:08:56;4.15;;;3.10;;
37288;SDS011;23174;49.462;11.000;2023-05-15T01:11:01;3.67;;;3.38;;
37288;SDS011;23174;49.462;11.000;2023-05-15T01:13:04;3.42;;;3.15;;
37288;SDS011;23174;49.462;11.000;2023-05-15T01:15:06;5.72;;;3.30;;
37288;SDS011;23174;49.462;11.000;2023-05-15T01:17:07;3.80;;;3.42;;
37288;SDS011;23174;49.462;11.000;2023-05-15T01:19:08;3.40;;;3.08;;
37288;SDS011;23174;49.462;11.000;2023-05-15T01:26:34;4.60;;;3.17;;
37288;SDS011;23174;49.462;11.000;2023-05-15T01:29:00;3.37;;;3.17;;
37288;SDS011;23174;49.462;11.000;2023-05-15T01:31:22;3.55;;;3.28;;
37288;SDS011;23174;49.462;11.000;2023-05-15T01:33:27;3.55;;;3.35;;
37288;SDS011;23174;49.462;11.000;2023-05-15T01:35:34;3.13;;;2.88;;
37288;SDS011;23174;49.462;11.000;2023-05-15T01:37:45;3.40;;;3.10;;
37288;SDS011;23174;49.462;11.000;2023-05-15T01:39:52;3.40;;;3.20;;
37288;SDS011;23174;49.462;11.000;2023-05-15T01:41:59;3.15;;;2.92;;
37288;SDS011;23174;49.462;11.000;2023-05-15T01:44:17;3.20;;;3.00;;
37288;SDS011;23174;49.462;11.000;2023-05-15T01:46:21;3.45;;;3.25;;
37288;SDS011;23174;49.462;11.000;2023-05-15T01:48:22;3.47;;;3.28;;
37288;SDS011;23174;49.462;11.000;2023-05-15T01:50:25;3.38;;;3.08;;
37288;SDS011;23174;49.462;11.000;2023-05-15T01:52:31;4.60;;;3.50;;
37288;SDS011;23174;49.462;11.000;2023-05-15T01:54:33;3.80;;;3.35;;
37288;SDS011;23174;49.462;11.000;2023-05-15T01:56:35;3.30;;;3.00;;
37288;SDS011;23174;49.462;11.000;2023-05-15T01:58:39;3.55;;;3.35;;
37288;SDS011;23174;49.462;11.000;2023-05-15T02:00:40;4.88;;;3.70;;
37288;SDS011;23174;49.462;11.000;2023-05-15T02:02:41;3.60;;;3.30;;
37288;SDS011;23174;49.462;11.000;2023-05-15T02:04:43;4.25;;;3.35;;
37288;SDS011;23174;49.462;11.000;2023-05-15T02:06:45;4.80;;;4.28;;
37288;SDS011;23174;49.462;11.000;2023-05-15T02:08:46;9.50;;;6.65;;
37288;SDS011;23174;49.462;11.000;2023-05-15T02:10:47;16.48;;;9.93;;
37288;SDS011;23174;49.462;11.000;2023-05-15T02:12:49;13.60;;;9.10;;
37288;SDS011;23174;49.462;11.000;2023-05-15T02:14:51;12.52;;;8.60;;
37288;SDS011;23174;49.462;11.000;2023-05-15T02:16:52;14.35;;;7.88;;
37288;SDS011;23174;49.462;11.000;2023-05-15T02:18:52;12.20;;;8.57;;
37288;SDS011;23174;49.462;11.000;2023-05-15T02:20:53;10.43;;;7.28;;
37288;SDS011;23174;49.462;11.000;2023-05-15T02:22:54;10.13;;;7.05;;
37288;SDS011;23174;49.462;11.000;2023-05-15T02:24:55;9.38;;;6.40;;
37288;SDS011;23174;49.462;11.000;2023-05-15T02:26:58;9.52;;;6.72;;
37288;SDS011;23174;49.462;11.000;2023-05-15T02:29:19;8.85;;;6.72;;
37288;SDS011;23174;49.462;11.000;2023-05-15T02:31:30;8.85;;;6.68;;
37288;SDS011;23174;49.462;11.000;2023-05-15T02:36:19;8.80;;;7.18;;
37288;SDS011;23174;49.462;11.000;2023-05-15T02:38:24;8.93;;;6.78;;
37288;SDS011;23174;49.462;11.000;2023-05-15T02:40:36;9.85;;;6.32;;
37288;SDS011;23174;49.462;11.000;2023-05-15T02:42:39;6.97;;;5.70;;
37288;SDS011;23174;49.462;11.000;2023-05-15T02:44:40;6.40;;;4.93;;
37288;SDS011;23174;49.462;11.000;2023-05-15T02:46:43;7.45;;;5.93;;
37288;SDS011;23174;49.462;11.000;2023-05-15T02:48:44;6.07;;;5.55;;
37288;SDS011;23174;49.462;11.000;2023-05-15T02:50:46;5.88;;;5.38;;
37288;SDS011;23174;49.462;11.000;2023-05-15T02:52:46;6.32;;;5.50;;
37288;SDS011;23174;49.462;11.000;2023-05-15T02:54:47;6.47;;;5.97;;
37288;SDS011;23174;49.462;11.000;2023-05-15T02:56:47;7.95;;;5.35;;
37288;SDS011;23174;49.462;11.000;2023-05-15T02:58:48;5.20;;;4.80;;
37288;SDS011;23174;49.462;11.000;2023-05-15T03:00:48;6.00;;;5.40;;
37288;SDS011;23174;49.462;11.000;2023-05-15T03:02:49;6.00;;;5.13;;
37288;SDS011;23174;49.462;11.000;2023-05-15T03:04:49;5.53;;;5.03;;
37288;SDS011;23174;49.462;11.000;2023-05-15T03:06:50;5.30;;;4.80;;
37288;SDS011;23174;49.462;11.000;2023-05-15T03:08:50;4.57;;;4.18;;
37288;SDS011;23174;49.462;11.000;2023-05-15T03:10:51;4.18;;;3.88;;
37288;SDS011;23174;49.462;11.000;2023-05-15T03:12:51;4.28;;;3.88;;
37288;SDS011;23174;49.462;11.000;2023-05-15T03:14:53;4.18;;;3.88;;
37288;SDS011;23174;49.462;11.000;2023-05-15T03:16:54;4.65;;;3.35;;
37288;SDS011;23174;49.462;11.000;2023-05-15T03:18:54;4.05;;;3.75;;
37288;SDS011;23174;49.462;11.000;2023-05-15T03:20:55;3.95;;;3.65;;
37288;SDS011;23174;49.462;11.000;2023-05-15T03:22:55;3.50;;;3.22;;
37288;SDS011;23174;49.462;11.000;2023-05-15T03:24:56;3.28;;;3.03;;
37288;SDS011;23174;49.462;11.000;2023-05-15T03:26:56;3.67;;;3.47;;
37288;SDS011;23174;49.462;11.000;2023-05-15T03:28:57;4.18;;;3.88;;
37288;SDS011;23174;49.462;11.000;2023-05-15T03:30:57;4.88;;;3.70;;
37288;SDS011;23174;49.462;11.000;2023-05-15T03:32:58;3.92;;;3.47;;
37288;SDS011;23174;49.462;11.000;2023-05-15T03:34:58;4.00;;;3.70;;
37288;SDS011;23174;49.462;11.000;2023-05-15T03:36:59;4.82;;;3.47;;
37288;SDS011;23174;49.462;11.000;2023-05-15T03:39:00;3.72;;;3.42;;
37288;SDS011;23174;49.462;11.000;2023-05-15T03:41:00;4.25;;;3.95;;
37288;SDS011;23174;49.462;11.000;2023-05-15T03:43:01;4.30;;;3.90;;
37288;SDS011;23174;49.462;11.000;2023-05-15T03:45:02;3.72;;;3.42;;
37288;SDS011;23174;49.462;11.000;2023-05-15T03:47:02;4.20;;;3.90;;
37288;SDS011;23174;49.462;11.000;2023-05-15T03:49:03;9.38;;;4.00;;
37288;SDS011;23174;49.462;11.000;2023-05-15T03:51:04;5.03;;;4.65;;
37288;SDS011;23174;49.462;11.000;2023-05-15T03:53:04;4.63;;;4.32;;
37288;SDS011;23174;49.462;11.000;2023-05-15T03:55:05;4.68;;;4.38;;
37288;SDS011;23174;49.462;11.000;2023-05-15T03:57:06;5.63;;;5.18;;
37288;SDS011;23174;49.462;11.000;2023-05-15T03:59:06;6.93;;;5.15;;
37288;SDS011;23174;49.462;11.000;2023-05-15T04:01:07;6.68;;;4.88;;
37288;SDS011;23174;49.462;11.000;2023-05-15T04:03:07;4.20;;;3.90;;
37288;SDS011;23174;49.462;11.000;2023-05-15T04:05:08;4.22;;;3.83;;
37288;SDS011;23174;49.462;11.000;2023-05-15T04:07:09;3.92;;;3.63;;
37288;SDS011;23174;49.462;11.000;2023-05-15T04:09:09;3.90;;;3.60;;
37288;SDS011;23174;49.462;11.000;2023-05-15T04:11:10;5.63;;;3.70;;
37288;SDS011;23174;49.462;11.000;2023-05-15T04:13:11;6.55;;;3.67;;
37288;SDS011;23174;49.462;11.000;2023-05-15T04:15:12;3.50;;;3.30;;
37288;SDS011;23174;49.462;11.000;2023-05-15T04:17:17;4.07;;;3.78;;
37288;SDS011;23174;49.462;11.000;2023-05-15T04:19:17;4.82;;;3.58;;
37288;SDS011;23174;49.462;11.000;2023-05-15T04:21:18;4.03;;;3.72;;
37288;SDS011;23174;49.462;11.000;2023-05-15T04:23:18;4.40;;;3.20;;
37288;SDS011;23174;49.462;11.000;2023-05-15T04:25:19;4.35;;;3.35;;
37288;SDS011;23174;49.462;11.000;2023-05-15T04:27:19;4.38;;;3.42;;
37288;SDS011;23174;49.462;11.000;2023-05-15T04:29:20;3.25;;;3.03;;
37288;SDS011;23174;49.462;11.000;2023-05-15T04:31:20;5.10;;;3.20;;
37288;SDS011;23174;49.462;11.000;2023-05-15T04:33:21;3.90;;;3.60;;
37288;SDS011;23174;49.462;11.000;2023-05-15T04:35:22;4.65;;;3.53;;
37288;SDS011;23174;49.462;11.000;2023-05-15T04:37:22;4.97;;;3.45;;
37288;SDS011;23174;49.462;11.000;2023-05-15T04:39:22;3.35;;;3.03;;
37288;SDS011;23174;49.462;11.000;2023-05-15T04:41:23;3.80;;;3.50;;
37288;SDS011;23174;49.462;11.000;2023-05-15T04:43:24;3.30;;;3.10;;
37288;SDS011;23174;49.462;11.000;2023-05-15T04:45:24;3.33;;;3.13;;
37288;SDS011;23174;49.462;11.000;2023-05-15T04:47:25;3.45;;;3.17;;
37288;SDS011;23174;49.462;11.000;2023-05-15T04:49:25;3.17;;;2.97;;
37288;SDS011;23174;49.462;11.000;2023-05-15T04:51:26;4.55;;;2.80;;
37288;SDS011;23174;49.462;11.000;2023-05-15T04:53:26;3.17;;;2.92;;
37288;SDS011;23174;49.462;11.000;2023-05-15T04:55:27;5.32;;;2.90;;
37288;SDS011;23174;49.462;11.000;2023-05-15T04:57:28;4.07;;;3.08;;
37288;SDS011;23174;49.462;11.000;2023-05-15T04:59:29;2.85;;;2.65;;
37288;SDS011;23174;49.462;11.000;2023-05-15T05:01:29;3.30;;;3.10;;
37288;SDS011;23174;49.462;11.000;2023-05-15T05:03:30;3.38;;;3.08;;
37288;SDS011;23174;49.462;11.000;2023-05-15T05:05:30;3.33;;;3.03;;
37288;SDS011;23174;49.462;11.000;2023-05-15T05:07:31;3.28;;;3.08;;
37288;SDS011;23174;49.462;11.000;2023-05-15T05:09:32;3.00;;;2.80;;
37288;SDS011;23174;49.462;11.000;2023-05-15T05:11:33;3.10;;;2.97;;
37288;SDS011;23174;49.462;11.000;2023-05-15T05:13:33;2.67;;;2.58;;
37288;SDS011;23174;49.462;11.000;2023-05-15T05:15:34;3.47;;;3.28;;
37288;SDS011;23174;49.462;11.000;2023-05-15T05:17:36;4.20;;;3.13;;
37288;SDS011;23174;49.462;11.000;2023-05-15T05:19:36;3.20;;;3.00;;
37288;SDS011;23174;49.462;11.000;2023-05-15T05:21:36;4.72;;;3.33;;
37288;SDS011;23174;49.462;11.000;2023-05-15T05:23:37;4.13;;;3.83;;
37288;SDS011;23174;49.462;11.000;2023-05-15T05:25:37;4.78;;;4.38;;
37288;SDS011;23174;49.462;11.000;2023-05-15T05:27:38;6.70;;;5.28;;
37288;SDS011;23174;49.462;11.000;2023-05-15T05:29:38;5.35;;;4.95;;
37288;SDS011;23174;49.462;11.000;2023-05-15T05:31:39;5.38;;;5.07;;
37288;SDS011;23174;49.462;11.000;2023-05-15T05:33:40;5.50;;;5.10;;
37288;SDS011;23174;49.462;11.000;2023-05-15T05:35:41;4.85;;;4.55;;
37288;SDS011;23174;49.462;11.000;2023-05-15T05:37:41;5.63;;;4.90;;
37288;SDS011;23174;49.462;11.000;2023-05-15T05:39:42;5.28;;;4.90;;
37288;SDS011;23174;49.462;11.000;2023-05-15T05:41:42;5.38;;;4.97;;
37288;SDS011;23174;49.462;11.000;2023-05-15T05:43:43;5.95;;;5.55;;
37288;SDS011;23174;49.462;11.000;2023-05-15T05:45:44;7.03;;;6.32;;
37288;SDS011;23174;49.462;11.000;2023-05-15T05:47:45;5.53;;;4.88;;
37288;SDS011;23174;49.462;11.000;2023-05-15T05:49:45;5.57;;;5.18;;
37288;SDS011;23174;49.462;11.000;2023-05-15T05:51:47;6.60;;;5.13;;
37288;SDS011;23174;49.462;11.000;2023-05-15T05:53:47;5.90;;;5.40;;
37288;SDS011;23174;49.462;11.000;2023-05-15T05:55:48;10.23;;;4.93;;
37288;SDS011;23174;49.462;11.000;2023-05-15T05:57:48;5.80;;;4.95;;
37288;SDS011;23174;49.462;11.000;2023-05-15T05:59:50;5.50;;;5.07;;
37288;SDS011;23174;49.462;11.000;2023-05-15T06:01:50;5.72;;;5.30;;
37288;SDS011;23174;49.462;11.000;2023-05-15T06:03:51;6.07;;;5.55;;
37288;SDS011;23174;49.462;11.000;2023-05-15T06:05:51;5.15;;;4.72;;
37288;SDS011;23174;49.462;11.000;2023-05-15T06:07:52;5.35;;;4.95;;
37288;SDS011;23174;49.462;11.000;2023-05-15T06:09:53;7.00;;;5.00;;
37288;SDS011;23174;49.462;11.000;2023-05-15T06:11:54;5.28;;;4.53;;
37288;SDS011;23174;49.462;11.000;2023-05-15T06:13:55;5.70;;;4.55;;
37288;SDS011;23174;49.462;11.000;2023-05-15T06:15:55;4.57;;;4.28;;
37288;SDS011;23174;49.462;11.000;2023-05-15T06:17:56;5.03;;;4.63;;
37288;SDS011;23174;49.462;11.000;2023-05-15T06:19:56;4.70;;;4.40;;
37288;SDS011;23174;49.462;11.000;2023-05-15T06:21:57;7.18;;;4.95;;
37288;SDS011;23174;49.462;11.000;2023-05-15T06:23:57;5.22;;;4.65;;
37288;SDS011;23174;49.462;11.000;2023-05-15T06:25:58;5.57;;;4.32;;
37288;SDS011;23174;49.462;11.000;2023-05-15T06:28:00;4.97;;;4.55;;
37288;SDS011;23174;49.462;11.000;2023-05-15T06:30:01;5.20;;;4.68;;
37288;SDS011;23174;49.462;11.000;2023-05-15T06:32:01;4.05;;;3.75;;
37288;SDS011;23174;49.462;11.000;2023-05-15T06:34:02;4.90;;;4.40;;
37288;SDS011;23174;49.462;11.000;2023-05-15T06:36:02;4.68;;;4.28;;
37288;SDS011;23174;49.462;11.000;2023-05-15T06:38:03;5.35;;;4.40;;
37288;SDS011;23174;49.462;11.000;2023-05-15T06:40:04;4.85;;;4.40;;
37288;SDS011;23174;49.462;11.000;2023-05-15T06:42:05;6.50;;;4.78;;
37288;SDS011;23174;49.462;11.000;2023-05-15T06:44:05;4.30;;;4.10;;
37288;SDS011;23174;49.462;11.000;2023-05-15T06:46:06;5.13;;;4.72;;
37288;SDS011;23174;49.462;11.000;2023-05-15T06:48:06;8.00;;;4.95;;
37288;SDS011;23174;49.462;11.000;2023-05-15T06:50:07;4.80;;;4.40;;
37288;SDS011;23174;49.462;11.000;2023-05-15T06:52:08;5.03;;;4.53;;
37288;SDS011;23174;49.462;11.000;2023-05-15T06:54:09;10.13;;;4.60;;
37288;SDS011;23174;49.462;11.000;2023-05-15T06:56:10;5.47;;;4.97;;
37288;SDS011;23174;49.462;11.000;2023-05-15T06:58:10;5.63;;;4.60;;
37288;SDS011;23174;49.462;11.000;2023-05-15T07:00:11;5.38;;;4.78;;
37288;SDS011;23174;49.462;11.000;2023-05-15T07:02:12;5.25;;;4.40;;
37288;SDS011;23174;49.462;11.000;2023-05-15T07:04:13;5.10;;;4.68;;
37288;SDS011;23174;49.462;11.000;2023-05-15T07:06:13;5.05;;;4.75;;
37288;SDS011;23174;49.462;11.000;2023-05-15T07:08:14;5.22;;;4.82;;
37288;SDS011;23174;49.462;11.000;2023-05-15T07:10:15;5.55;;;4.95;;
37288;SDS011;23174;49.462;11.000;2023-05-15T07:12:15;4.97;;;4.60;;
37288;SDS011;23174;49.462;11.000;2023-05-15T07:14:16;5.18;;;4.78;;
37288;SDS011;23174;49.462;11.000;2023-05-15T07:16:16;5.53;;;4.85;;
37288;SDS011;23174;49.462;11.000;2023-05-15T07:18:16;8.15;;;5.38;;
37288;SDS011;23174;49.462;11.000;2023-05-15T07:20:17;8.02;;;5.25;;
37288;SDS011;23174;49.462;11.000;2023-05-15T07:22:18;6.97;;;4.80;;
37288;SDS011;23174;49.462;11.000;2023-05-15T07:24:18;6.20;;;4.88;;
37288;SDS011;23174;49.462;11.000;2023-05-15T07:26:19;5.32;;;4.95;;
37288;SDS011;23174;49.462;11.000;2023-05-15T07:28:20;5.20;;;4.90;;
37288;SDS011;23174;49.462;11.000;2023-05-15T07:30:21;5.07;;;4.55;;
37288;SDS011;23174;49.462;11.000;2023-05-15T07:32:23;5.25;;;4.82;;
37288;SDS011;23174;49.462;11.000;2023-05-15T07:34:23;4.80;;;4.40;;
37288;SDS011;23174;49.462;11.000;2023-05-15T07:36:24;5.15;;;4.80;;
37288;SDS011;23174;49.462;11.000;2023-05-15T07:38:24;5.00;;;4.53;;
37288;SDS011;23174;49.462;11.000;2023-05-15T07:40:25;5.15;;;4.70;;
37288;SDS011;23174;49.462;11.000;2023-05-15T07:42:25;4.50;;;4.10;;
37288;SDS011;23174;49.462;11.000;2023-05-15T07:44:26;4.78;;;4.35;;
37288;SDS011;23174;49.462;11.000;2023-05-15T07:46:26;7.53;;;4.80;;
37288;SDS011;23174;49.462;11.000;2023-05-15T07:48:27;5.45;;;4.88;;
37288;SDS011;23174;49.462;11.000;2023-05-15T07:50:27;4.50;;;4.10;;
37288;SDS011;23174;49.462;11.000;2023-05-15T07:52:28;5.55;;;5.05;;
37288;SDS011;23174;49.462;11.000;2023-05-15T07:54:28;4.47;;;4.18;;
37288;SDS011;23174;49.462;11.000;2023-05-15T07:56:31;7.95;;;4.30;;
37288;SDS011;23174;49.462;11.000;2023-05-15T07:58:32;4.30;;;3.80;;
37288;SDS011;23174;49.462;11.000;2023-05-15T08:00:36;3.55;;;3.30;;
37288;SDS011;23174;49.462;11.000;2023-05-15T08:02:37;4.40;;;4.00;;
37288;SDS011;23174;49.462;11.000;2023-05-15T08:04:38;4.00;;;3.70;;
37288;SDS011;23174;49.462;11.000;2023-05-15T08:06:38;4.43;;;4.07;;
37288;SDS011;23174;49.462;11.000;2023-05-15T08:08:41;4.03;;;3.63;;
37288;SDS011;23174;49.462;11.000;2023-05-15T08:10:41;4.20;;;3.85;;
37288;SDS011;23174;49.462;11.000;2023-05-15T08:12:42;4.43;;;3.63;;
37288;SDS011;23174;49.462;11.000;2023-05-15T08:14:48;4.05;;;3.63;;
37288;SDS011;23174;49.462;11.000;2023-05-15T08:16:50;3.88;;;3.42;;
37288;SDS011;23174;49.462;11.000;2023-05-15T08:18:50;3.78;;;3.58;;
37288;SDS011;23174;49.462;11.000;2023-05-15T08:20:52;3.90;;;3.60;;
37288;SDS011;23174;49.462;11.000;2023-05-15T08:22:52;4.22;;;3.88;;
37288;SDS011;23174;49.462;11.000;2023-05-15T08:24:53;4.03;;;3.72;;
37288;SDS011;23174;49.462;11.000;2023-05-15T08:26:53;3.45;;;3.25;;
37288;SDS011;23174;49.462;11.000;2023-05-15T08:28:54;3.90;;;3.60;;
37288;SDS011;23174;49.462;11.000;2023-05-15T08:30:54;4.05;;;3.65;;
37288;SDS011;23174;49.462;11.000;2023-05-15T08:32:55;9.70;;;3.67;;
37288;SDS011;23174;49.462;11.000;2023-05-15T08:34:55;4.40;;;4.00;;
37288;SDS011;23174;49.462;11.000;2023-05-15T08:36:57;4.22;;;3.70;;
37288;SDS011;23174;49.462;11.000;2023-05-15T08:38:58;4.55;;;4.15;;
37288;SDS011;23174;49.462;11.000;2023-05-15T08:41:01;4.22;;;3.85;;
37288;SDS011;23174;49.462;11.000;2023-05-15T08:43:09;6.18;;;3.38;;
37288;SDS011;23174;49.462;11.000;2023-05-15T08:45:15;4.03;;;3.72;;
37288;SDS011;23174;49.462;11.000;2023-05-15T08:47:15;3.47;;;3.28;;
37288;SDS011;23174;49.462;11.000;2023-05-15T08:49:23;3.90;;;3.65;;
37288;SDS011;23174;49.462;11.000;2023-05-15T08:51:34;3.33;;;3.10;;
37288;SDS011;23174;49.462;11.000;2023-05-15T08:53:35;4.72;;;3.53;;
37288;SDS011;23174;49.462;11.000;2023-05-15T08:55:36;3.58;;;3.30;;
37288;SDS011;23174;49.462;11.000;2023-05-15T08:57:37;4.43;;;3.92;;
37288;SDS011;23174;49.462;11.000;2023-05-15T08:59:39;4.22;;;3.83;;
37288;SDS011;23174;49.462;11.000;2023-05-15T09:01:42;2.67;;;1.42;;
37288;SDS011;23174;49.462;11.000;2023-05-15T09:03:43;1.48;;;1.35;;
37288;SDS011;23174;49.462;11.000;2023-05-15T09:05:44;2.25;;;1.70;;
37288;SDS011;23174;49.462;11.000;2023-05-15T09:07:46;3.42;;;1.50;;
37288;SDS011;23174;49.462;11.000;2023-05-15T09:09:48;1.60;;;1.50;;
37288;SDS011;23174;49.462;11.000;2023-05-15T09:11:50;1.38;;;1.27;;
37288;SDS011;23174;49.462;11.000;2023-05-15T09:13:52;0.68;;;0.68;;
37288;SDS011;23174;49.462;11.000;2023-05-15T09:15:52;0.25;;;0.25;;
37288;SDS011;23174;49.462;11.000;2023-05-15T09:17:53;0.60;;;0.60;;
37288;SDS011;23174;49.462;11.000;2023-05-15T09:19:54;0.85;;;0.85;;
37288;SDS011;23174;49.462;11.000;2023-05-15T09:21:54;0.80;;;0.80;;
37288;SDS011;23174;49.462;11.000;2023-05-15T09:24:14;1.80;;;1.15;;
37288;SDS011;23174;49.462;11.000;2023-05-15T09:26:16;0.50;;;0.50;;
37288;SDS011;23174;49.462;11.000;2023-05-15T09:28:33;0.85;;;0.85;;
37288;SDS011;23174;49.462;11.000;2023-05-15T09:30:36;0.47;;;0.47;;
37288;SDS011;23174;49.462;11.000;2023-05-15T09:32:41;0.38;;;0.38;;
37288;SDS011;23174;49.462;11.000;2023-05-15T09:34:42;0.28;;;0.28;;
37288;SDS011;23174;49.462;11.000;2023-05-15T09:36:43;2.17;;;1.05;;
37288;SDS011;23174;49.462;11.000;2023-05-15T09:38:44;0.50;;;0.50;;
37288;SDS011;23174;49.462;11.000;2023-05-15T09:40:47;0.77;;;0.77;;
37288;SDS011;23174;49.462;11.000;2023-05-15T09:42:50;0.43;;;0.43;;
37288;SDS011;23174;49.462;11.000;2023-05-15T09:44:51;1.30;;;0.45;;
37288;SDS011;23174;49.462;11.000;2023-05-15T09:46:52;0.20;;;0.20;;
37288;SDS011;23174;49.462;11.000;2023-05-15T09:48:53;0.60;;;0.60;;
37288;SDS011;23174;49.462;11.000;2023-05-15T09:50:54;1.05;;;1.05;;
37288;SDS011;23174;49.462;11.000;2023-05-15T09:52:57;0.65;;;0.65;;
37288;SDS011;23174;49.462;11.000;2023-05-15T09:54:58;0.20;;;0.20;;
37288;SDS011;23174;49.462;11.000;2023-05-15T09:57:12;0.63;;;0.63;;
37288;SDS011;23174;49.462;11.000;2023-05-15T09:59:13;0.75;;;0.75;;
37288;SDS011;23174;49.462;11.000;2023-05-15T10:01:15;0.77;;;0.77;;
37288;SDS011;23174;49.462;11.000;2023-05-15T10:03:20;0.90;;;0.90;;
37288;SDS011;23174;49.462;11.000;2023-05-15T10:05:23;0.63;;;0.63;;
37288;SDS011;23174;49.462;11.000;2023-05-15T10:07:32;0.77;;;0.77;;
37288;SDS011;23174;49.462;11.000;2023-05-15T10:09:34;0.68;;;0.47;;
37288;SDS011;23174;49.462;11.000;2023-05-15T10:11:38;0.60;;;0.60;;
37288;SDS011;23174;49.462;11.000;2023-05-15T10:13:40;0.32;;;0.30;;
37288;SDS011;23174;49.462;11.000;2023-05-15T10:15:41;1.25;;;1.15;;
37288;SDS011;23174;49.462;11.000;2023-05-15T10:17:42;0.73;;;0.73;;
37288;SDS011;23174;49.462;11.000;2023-05-15T10:19:43;0.32;;;0.32;;
37288;SDS011;23174;49.462;11.000;2023-05-15T10:21:44;0.68;;;0.68;;
37288;SDS011;23174;49.462;11.000;2023-05-15T10:23:45;0.28;;;0.28;;
37288;SDS011;23174;49.462;11.000;2023-05-15T10:25:49;0.20;;;0.20;;
37288;SDS011;23174;49.462;11.000;2023-05-15T10:28:02;0.40;;;0.40;;
37288;SDS011;23174;49.462;11.000;2023-05-15T10:30:02;0.50;;;0.50;;
37288;SDS011;23174;49.462;11.000;2023-05-15T10:32:03;0.25;;;0.25;;
37288;SDS011;23174;49.462;11.000;2023-05-15T10:34:04;0.35;;;0.35;;
37288;SDS011;23174;49.462;11.000;2023-05-15T10:36:05;0.63;;;0.63;;
37288;SDS011;23174;49.462;11.000;2023-05-15T10:38:07;1.75;;;0.65;;
37288;SDS011;23174;49.462;11.000;2023-05-15T10:40:09;4.25;;;0.55;;
37288;SDS011;23174;49.462;11.000;2023-05-15T10:42:11;4.15;;;2.22;;
37288;SDS011;23174;49.462;11.000;2023-05-15T10:44:12;2.47;;;2.28;;
37288;SDS011;23174;49.462;11.000;2023-05-15T10:46:15;2.22;;;2.05;;
37288;SDS011;23174;49.462;11.000;2023-05-15T10:48:15;2.65;;;2.45;;
37288;SDS011;23174;49.462;11.000;2023-05-15T10:50:17;2.28;;;2.17;;
37288;SDS011;23174;49.462;11.000;2023-05-15T10:52:19;4.97;;;2.45;;
37288;SDS011;23174;49.462;11.000;2023-05-15T10:54:20;2.45;;;2.28;;
37288;SDS011;23174;49.462;11.000;2023-05-15T10:56:25;3.88;;;2.28;;
37288;SDS011;23174;49.462;11.000;2023-05-15T10:58:28;3.03;;;2.20;;
37288;SDS011;23174;49.462;11.000;2023-05-15T11:00:30;2.05;;;1.92;;
37288;SDS011;23174;49.462;11.000;2023-05-15T11:02:30;4.03;;;1.88;;
37288;SDS011;23174;49.462;11.000;2023-05-15T11:04:37;2.88;;;2.20;;
37288;SDS011;23174;49.462;11.000;2023-05-15T11:06:39;5.03;;;2.30;;
37288;SDS011;23174;49.462;11.000;2023-05-15T11:08:44;2.67;;;2.47;;
37288;SDS011;23174;49.462;11.000;2023-05-15T11:10:45;2.35;;;2.25;;
37288;SDS011;23174;49.462;11.000;2023-05-15T11:12:55;4.57;;;2.58;;
37288;SDS011;23174;49.462;11.000;2023-05-15T11:16:57;2.65;;;2.45;;
37288;SDS011;23174;49.462;11.000;2023-05-15T11:18:58;2.80;;;2.60;;
37288;SDS011;23174;49.462;11.000;2023-05-15T11:22:59;3.05;;;2.85;;
37288;SDS011;23174;49.462;11.000;2023-05-15T11:25:07;3.08;;;2.88;;
37288;SDS011;23174;49.462;11.000;2023-05-15T11:27:09;3.78;;;2.90;;
37288;SDS011;23174;49.462;11.000;2023-05-15T11:29:18;4.18;;;3.47;;
37288;SDS011;23174;49.462;11.000;2023-05-15T11:31:18;2.88;;;2.67;;
37288;SDS011;23174;49.462;11.000;2023-05-15T11:33:28;3.63;;;3.03;;
37288;SDS011;23174;49.462;11.000;2023-05-15T11:35:37;3.30;;;3.10;;
37288;SDS011;23174;49.462;11.000;2023-05-15T11:37:46;4.25;;;3.30;;
37288;SDS011;23174;49.462;11.000;2023-05-15T11:39:57;3.30;;;3.10;;
37288;SDS011;23174;49.462;11.000;2023-05-15T11:41:58;2.63;;;2.42;;
37288;SDS011;23174;49.462;11.000;2023-05-15T11:44:10;2.55;;;2.40;;
37288;SDS011;23174;49.462;11.000;2023-05-15T11:46:12;2.85;;;2.65;;
37288;SDS011;23174;49.462;11.000;2023-05-15T11:48:14;3.85;;;2.67;;
37288;SDS011;23174;49.462;11.000;2023-05-15T11:50:15;5.45;;;2.63;;
37288;SDS011;23174;49.462;11.000;2023-05-15T11:52:16;3.95;;;2.85;;
37288;SDS011;23174;49.462;11.000;2023-05-15T11:54:17;2.83;;;2.63;;
37288;SDS011;23174;49.462;11.000;2023-05-15T11:56:18;2.90;;;2.70;;
37288;SDS011;23174;49.462;11.000;2023-05-15T11:58:24;3.17;;;2.88;;
37288;SDS011;23174;49.462;11.000;2023-05-15T12:00:25;5.35;;;2.85;;
37288;SDS011;23174;49.462;11.000;2023-05-15T12:02:26;3.13;;;2.92;;
37288;SDS011;23174;49.462;11.000;2023-05-15T12:04:26;3.00;;;2.80;;
37288;SDS011;23174;49.462;11.000;2023-05-15T12:06:27;4.25;;;3.15;;
37288;SDS011;23174;49.462;11.000;2023-05-15T12:08:34;5.38;;;3.10;;
37288;SDS011;23174;49.462;11.000;2023-05-15T12:10:42;6.38;;;2.90;;
37288;SDS011;23174;49.462;11.000;2023-05-15T12:12:44;3.78;;;3.00;;
37288;SDS011;23174;49.462;11.000;2023-05-15T12:14:45;3.92;;;3.10;;